Time;durP1;ratioP1;P1;durP2;ratioP2;P2;SDS_P1;SDS_P2;PMS_P1;PMS_P2;Temp;Humidity;BMP_temperature;BMP_pressure;BME280_temperature;BME280_humidity;BME280_pressure;Samples;Min_cycle;Max_cycle;Signal;HPM_P1;HPM_P2
2022/06/14 00:03:02;;;;;;;6.93;3.67;;;11.60;99.90;;;;;;4972071;28;20300;-84
2022/06/14 00:05:29;;;;;;;6.63;2.30;;;11.60;99.90;;;;;;4970725;28;20217;-84
2022/06/14 00:07:56;;;;;;;6.67;2.60;;;11.40;99.90;;;;;;4970249;28;20218;-84
2022/06/14 00:10:23;;;;;;;8.13;2.27;;;11.50;99.90;;;;;;4970191;28;20233;-84
2022/06/14 00:12:50;;;;;;;5.33;2.17;;;11.60;99.90;;;;;;4971944;28;20212;-84
2022/06/14 00:15:17;;;;;;;6.20;2.30;;;11.50;99.90;;;;;;4971095;28;20213;-83
2022/06/14 00:17:44;;;;;;;5.40;2.37;;;11.50;99.90;;;;;;4972557;28;20212;-84
2022/06/14 00:20:13;;;;;;;4.47;2.30;;;11.20;99.90;;;;;;4972417;28;20243;-84
2022/06/14 00:22:41;;;;;;;4.87;2.20;;;11.10;99.90;;;;;;4975485;28;20257;-84
2022/06/14 00:25:09;;;;;;;4.03;2.17;;;11.00;99.90;;;;;;4974264;28;20202;-84
2022/06/14 00:27:36;;;;;;;5.70;2.80;;;10.90;99.90;;;;;;4974440;28;20206;-84
2022/06/14 00:30:03;;;;;;;6.20;2.47;;;10.80;99.90;;;;;;4974363;28;20609;-84
2022/06/14 00:32:30;;;;;;;5.80;2.77;;;11.10;99.90;;;;;;4974850;28;20206;-84
2022/06/14 00:34:57;;;;;;;6.30;2.60;;;11.30;99.90;;;;;;4973998;28;20889;-84
2022/06/14 00:37:25;;;;;;;5.13;2.60;;;11.30;99.90;;;;;;4975409;28;20206;-84
2022/06/14 00:39:52;;;;;;;5.23;2.17;;;11.20;99.90;;;;;;4974233;28;20705;-84
2022/06/14 00:42:23;;;;;;;5.23;2.27;;;11.30;99.90;;;;;;4974457;28;20607;-83
2022/06/14 00:45:04;;;;;;;6.33;2.10;;;11.30;99.90;;;;;;4974260;28;20253;-84
2022/06/14 00:47:35;;;;;;;4.73;2.33;;;11.30;99.90;;;;;;4975385;28;20206;-84
2022/06/14 00:50:07;;;;;;;5.03;2.43;;;11.50;99.90;;;;;;4975211;28;20229;-84
2022/06/14 00:52:39;;;;;;;5.97;2.20;;;11.30;99.90;;;;;;4973325;28;20216;-84
2022/06/14 00:55:10;;;;;;;9.50;2.80;;;11.30;99.90;;;;;;4972820;28;20190;-83
2022/06/14 00:57:42;;;;;;;4.53;2.10;;;11.20;99.90;;;;;;4973920;28;20196;-84
2022/06/14 01:00:11;;;;;;;7.03;2.40;;;11.30;99.90;;;;;;4973538;28;20694;-84
2022/06/14 01:02:43;;;;;;;3.63;2.30;;;11.30;99.90;;;;;;4974520;28;20221;-84
2022/06/14 01:05:17;;;;;;;5.80;2.40;;;11.10;99.90;;;;;;4973668;28;20213;-84
2022/06/14 01:07:48;;;;;;;5.93;2.30;;;11.00;99.90;;;;;;4972942;28;20196;-84
2022/06/14 01:10:20;;;;;;;4.97;2.47;;;11.10;99.90;;;;;;4972898;28;20230;-84
2022/06/14 01:12:51;;;;;;;5.03;2.67;;;10.90;99.90;;;;;;4973953;28;20185;-84
2022/06/14 01:15:20;;;;;;;4.00;2.47;;;10.90;99.90;;;;;;4973461;28;20706;-84
2022/06/14 01:17:51;;;;;;;3.73;2.03;;;11.00;99.90;;;;;;4974631;28;20213;-84
2022/06/14 01:20:20;;;;;;;6.93;2.20;;;11.00;99.90;;;;;;4973702;28;20229;-84
2022/06/14 01:22:49;;;;;;;4.50;2.03;;;11.00;99.90;;;;;;4973115;28;20316;-84
2022/06/14 01:25:17;;;;;;;5.40;2.43;;;11.10;99.90;;;;;;4973117;28;20285;-84
2022/06/14 01:27:45;;;;;;;6.57;2.17;;;11.10;99.90;;;;;;4974524;28;20639;-84
2022/06/14 01:30:15;;;;;;;4.87;2.17;;;11.10;99.90;;;;;;4973624;28;20594;-84
2022/06/14 01:32:50;;;;;;;5.17;2.10;;;11.10;99.90;;;;;;4972765;28;20194;-83
2022/06/14 01:35:21;;;;;;;7.57;2.50;;;11.20;99.90;;;;;;4973058;28;20296;-83
2022/06/14 01:37:51;;;;;;;6.03;2.23;;;11.10;99.90;;;;;;4974380;28;20210;-83
2022/06/14 01:40:19;;;;;;;3.30;2.47;;;10.90;99.90;;;;;;4971603;28;20235;-83
2022/06/14 01:43:11;;;;;;;5.87;2.00;;;11.00;99.90;;;;;;4972970;28;20225;-84
2022/06/14 01:45:47;;;;;;;10.77;2.67;;;10.90;99.90;;;;;;4970849;28;20229;-83
2022/06/14 01:48:23;;;;;;;4.33;2.07;;;10.80;99.90;;;;;;4973491;28;20214;-83
2022/06/14 01:53:49;;;;;;;6.83;2.93;;;10.70;99.90;;;;;;4973375;28;20185;-83
2022/06/14 01:56:20;;;;;;;5.63;2.17;;;10.60;99.90;;;;;;4973468;28;20281;-83
2022/06/14 01:58:55;;;;;;;5.70;2.60;;;10.50;99.90;;;;;;4973965;28;20300;-84
2022/06/14 02:01:27;;;;;;;5.67;2.23;;;10.60;99.90;;;;;;4972044;28;20244;-84
2022/06/14 02:06:59;;;;;;;7.93;2.70;;;10.70;99.90;;;;;;4964362;28;20189;-84
2022/06/14 02:09:37;;;;;;;4.70;2.50;;;10.70;99.90;;;;;;4973767;28;20178;-84
2022/06/14 02:12:06;;;;;;;6.10;2.20;;;10.60;99.90;;;;;;4973746;28;20220;-83
2022/06/14 02:14:39;;;;;;;3.20;1.90;;;10.50;99.90;;;;;;4971422;28;20210;-83
2022/06/14 02:17:10;;;;;;;6.03;2.30;;;10.40;99.90;;;;;;4972202;28;20181;-83
2022/06/14 02:19:40;;;;;;;6.13;2.37;;;10.40;99.90;;;;;;4973588;28;20312;-84
2022/06/14 02:22:11;;;;;;;9.27;2.67;;;10.40;99.90;;;;;;4972296;28;20320;-83
2022/06/14 02:24:44;;;;;;;6.53;2.37;;;10.40;99.90;;;;;;4970595;28;20213;-84
2022/06/14 02:27:15;;;;;;;5.57;1.80;;;10.40;99.90;;;;;;4972093;28;20626;-83
2022/06/14 02:29:48;;;;;;;8.37;2.23;;;10.20;99.90;;;;;;4972123;28;20230;-83
2022/06/14 02:32:21;;;;;;;8.33;2.33;;;10.30;99.90;;;;;;4972845;28;20190;-84
2022/06/14 02:34:51;;;;;;;5.37;2.20;;;10.20;99.90;;;;;;4972463;28;20206;-83
2022/06/14 02:37:23;;;;;;;6.57;2.17;;;10.10;99.90;;;;;;4973262;28;20289;-84
2022/06/14 02:39:56;;;;;;;5.80;2.20;;;10.00;99.90;;;;;;4971203;28;20230;-83
2022/06/14 02:42:28;;;;;;;8.40;2.20;;;9.90;99.90;;;;;;4971142;28;20220;-83
2022/06/14 02:45:02;;;;;;;9.37;2.90;;;9.90;99.90;;;;;;4972900;28;20221;-84
2022/06/14 02:47:35;;;;;;;5.47;1.87;;;9.80;99.90;;;;;;4971850;28;20233;-84
2022/06/14 02:50:07;;;;;;;4.40;1.73;;;10.00;99.90;;;;;;4973174;28;20531;-83
2022/06/14 02:52:37;;;;;;;7.20;2.53;;;9.90;99.90;;;;;;4972739;28;20426;-84
2022/06/14 02:55:10;;;;;;;5.93;2.40;;;10.00;99.90;;;;;;4973201;28;20300;-83
2022/06/14 02:57:42;;;;;;;6.10;2.50;;;10.00;99.90;;;;;;4973162;28;20186;-83
2022/06/14 03:00:13;;;;;;;4.67;2.20;;;10.00;99.90;;;;;;4972710;28;20689;-82
2022/06/14 03:02:45;;;;;;;5.80;2.60;;;10.00;99.90;;;;;;4971194;28;20222;-84
2022/06/14 03:05:18;;;;;;;5.63;1.90;;;9.90;99.90;;;;;;4972518;28;20647;-84
2022/06/14 03:07:51;;;;;;;7.70;2.03;;;9.90;99.90;;;;;;4972845;28;20579;-84
2022/06/14 03:10:20;;;;;;;6.87;2.67;;;9.80;99.90;;;;;;4970163;28;20259;-84
2022/06/14 03:12:56;;;;;;;7.17;2.40;;;9.80;99.90;;;;;;4972766;28;20288;-84
2022/06/14 03:15:32;;;;;;;6.67;2.50;;;9.80;99.90;;;;;;4972780;28;20215;-84
2022/06/14 03:18:12;;;;;;;4.30;2.47;;;9.80;99.90;;;;;;4972730;28;20182;-85
2022/06/14 03:20:49;;;;;;;10.17;2.67;;;9.80;99.90;;;;;;4972911;28;20229;-84
2022/06/14 03:23:21;;;;;;;5.13;2.33;;;9.70;99.90;;;;;;4973544;28;20300;-83
2022/06/14 03:25:56;;;;;;;4.37;2.80;;;9.70;99.90;;;;;;4973357;28;20202;-84
2022/06/14 03:28:29;;;;;;;11.00;4.27;;;9.60;99.90;;;;;;4975123;28;20211;-82
2022/06/14 03:31:04;;;;;;;7.33;3.00;;;9.80;99.90;;;;;;4976310;28;20225;-80
2022/06/14 03:33:37;;;;;;;6.83;3.23;;;10.00;99.90;;;;;;4973269;28;20280;-84
2022/06/14 03:36:06;;;;;;;8.67;2.77;;;10.10;99.90;;;;;;4972741;28;20205;-85
2022/06/14 03:38:36;;;;;;;6.07;2.53;;;9.90;99.90;;;;;;4972898;28;20233;-84
2022/06/14 03:41:06;;;;;;;8.30;4.53;;;10.00;99.90;;;;;;4972669;28;20425;-84
2022/06/14 03:43:35;;;;;;;4.97;3.40;;;10.10;99.90;;;;;;4972596;28;20712;-84
2022/06/14 03:46:07;;;;;;;5.23;2.80;;;10.30;99.90;;;;;;4972369;28;20221;-84
2022/06/14 03:48:39;;;;;;;5.17;2.70;;;10.30;99.90;;;;;;4973314;28;20284;-84
2022/06/14 03:51:11;;;;;;;6.43;2.60;;;10.20;99.90;;;;;;4972459;28;20217;-85
2022/06/14 03:53:58;;;;;;;6.60;2.87;;;10.10;99.90;;;;;;4972403;28;20297;-85
2022/06/14 03:56:38;;;;;;;5.37;2.33;;;10.10;99.90;;;;;;4976103;28;20213;-85
2022/06/14 03:59:27;;;;;;;7.50;2.57;;;10.10;99.90;;;;;;4975887;28;20193;-85
2022/06/14 04:02:03;;;;;;;5.87;2.60;;;10.00;99.90;;;;;;4976142;28;20265;-84
2022/06/14 04:04:45;;;;;;;4.57;2.63;;;10.10;99.90;;;;;;4976021;28;20214;-84
2022/06/14 04:07:20;;;;;;;6.23;3.10;;;10.30;99.90;;;;;;4976210;28;20436;-85
2022/06/14 04:09:52;;;;;;;6.70;2.80;;;10.30;99.90;;;;;;4975971;28;20244;-84
2022/06/14 04:12:32;;;;;;;5.77;2.70;;;10.10;99.90;;;;;;4976063;28;20671;-84
2022/06/14 04:15:16;;;;;;;3.50;2.70;;;10.00;99.90;;;;;;4976605;28;20192;-84
2022/06/14 04:17:49;;;;;;;3.33;2.73;;;10.10;99.90;;;;;;4976215;28;20296;-84
2022/06/14 04:20:22;;;;;;;7.97;2.60;;;10.10;99.90;;;;;;4976588;28;20230;-84
2022/06/14 04:22:57;;;;;;;4.70;2.77;;;10.10;99.90;;;;;;4977937;28;20264;-85
2022/06/14 04:25:32;;;;;;;6.10;3.53;;;10.10;99.90;;;;;;4976163;28;20209;-85
2022/06/14 04:28:07;;;;;;;5.23;2.97;;;10.30;99.90;;;;;;4976413;28;20216;-86
2022/06/14 04:30:41;;;;;;;4.53;3.00;;;10.20;99.90;;;;;;4976140;28;20260;-85
2022/06/14 04:33:13;;;;;;;5.43;2.60;;;10.50;99.90;;;;;;4975275;28;20661;-85
2022/06/14 04:35:47;;;;;;;6.00;2.60;;;10.50;99.90;;;;;;4976410;28;20189;-84
2022/06/14 04:38:18;;;;;;;6.50;2.80;;;10.60;99.90;;;;;;4976517;28;20645;-84
2022/06/14 04:40:50;;;;;;;6.47;2.77;;;10.80;99.90;;;;;;4975832;28;20229;-84
2022/06/14 04:43:24;;;;;;;6.63;2.50;;;10.80;99.90;;;;;;4976391;28;20646;-85
2022/06/14 04:45:56;;;;;;;7.80;2.70;;;10.90;99.90;;;;;;4975713;28;20588;-85
2022/06/14 04:48:30;;;;;;;6.43;2.73;;;10.90;99.90;;;;;;4976256;28;20240;-85
2022/06/14 04:51:02;;;;;;;2.87;2.30;;;10.90;99.90;;;;;;4975293;28;20313;-85
2022/06/14 04:53:35;;;;;;;6.93;2.80;;;10.70;99.90;;;;;;4975276;28;20216;-85
2022/06/14 04:56:07;;;;;;;6.60;2.87;;;10.80;99.90;;;;;;4976450;28;20205;-85
2022/06/14 04:58:41;;;;;;;4.83;2.50;;;10.90;99.90;;;;;;4981131;28;20654;-85
2022/06/14 05:01:14;;;;;;;3.33;2.43;;;11.00;99.90;;;;;;4974608;28;20316;-85
2022/06/14 05:03:47;;;;;;;4.43;2.53;;;10.90;99.90;;;;;;4974642;28;20280;-85
2022/06/14 05:06:18;;;;;;;4.03;2.50;;;10.70;99.90;;;;;;4973959;28;20198;-84
2022/06/14 05:08:48;;;;;;;6.07;3.03;;;11.00;99.90;;;;;;4974525;28;20449;-85
2022/06/14 05:11:19;;;;;;;6.37;2.90;;;11.10;99.90;;;;;;4974107;28;20225;-85
2022/06/14 05:13:57;;;;;;;6.83;3.13;;;11.20;99.90;;;;;;4975914;28;20212;-85
2022/06/14 05:16:29;;;;;;;6.17;2.90;;;11.40;99.90;;;;;;4975203;28;20215;-85
2022/06/14 05:19:03;;;;;;;10.53;3.27;;;11.40;99.90;;;;;;4976082;28;20213;-85
2022/06/14 05:21:34;;;;;;;7.83;3.13;;;11.60;99.90;;;;;;4975242;28;20248;-86
2022/06/14 05:24:02;;;;;;;5.37;3.07;;;11.80;99.90;;;;;;4974450;28;20220;-85
2022/06/14 05:26:41;;;;;;;10.57;3.10;;;11.70;99.90;;;;;;4975477;28;20213;-85
2022/06/14 05:29:17;;;;;;;10.17;3.50;;;11.80;99.90;;;;;;4974683;28;20197;-85
2022/06/14 05:31:50;;;;;;;9.57;3.33;;;12.00;99.90;;;;;;4974245;28;20181;-85
2022/06/14 05:34:26;;;;;;;11.77;3.30;;;12.00;99.90;;;;;;4975045;28;20269;-86
2022/06/14 05:36:59;;;;;;;9.13;3.30;;;12.10;99.90;;;;;;4975033;28;20573;-85
2022/06/14 05:39:32;;;;;;;4.47;3.23;;;12.40;99.90;;;;;;4974704;28;20293;-85
2022/06/14 05:42:05;;;;;;;4.67;2.73;;;12.80;99.90;;;;;;4982878;28;20209;-85
2022/06/14 05:44:39;;;;;;;4.97;3.33;;;12.60;99.90;;;;;;4994541;28;20630;-85
2022/06/14 05:47:10;;;;;;;5.87;2.80;;;12.90;99.90;;;;;;4995333;28;20209;-85
2022/06/14 05:49:42;;;;;;;7.30;2.53;;;13.30;99.90;;;;;;4994120;28;20606;-85
2022/06/14 05:52:15;;;;;;;7.03;2.93;;;13.30;99.90;;;;;;4958637;28;20294;-85
2022/06/14 05:54:47;;;;;;;8.90;2.60;;;13.10;99.90;;;;;;4956163;29;20213;-85
2022/06/14 05:57:22;;;;;;;6.37;2.40;;;13.10;99.90;;;;;;4955969;28;20583;-85
2022/06/14 05:59:55;;;;;;;5.80;2.70;;;13.00;99.90;;;;;;4955405;29;20745;-85
2022/06/14 06:02:29;;;;;;;5.73;3.00;;;12.90;99.90;;;;;;4964851;28;20565;-85
2022/06/14 06:05:02;;;;;;;5.80;2.53;;;13.00;99.90;;;;;;4974877;28;20209;-85
2022/06/14 06:07:33;;;;;;;7.77;2.80;;;13.20;99.90;;;;;;4990329;28;20586;-84
2022/06/14 06:10:05;;;;;;;7.50;3.23;;;13.30;99.90;;;;;;4960897;28;20238;-85
2022/06/14 06:12:36;;;;;;;6.40;2.93;;;13.30;99.90;;;;;;4975114;28;20236;-85
2022/06/14 06:15:11;;;;;;;7.23;2.97;;;13.40;99.90;;;;;;4974722;28;20564;-84
2022/06/14 06:17:42;;;;;;;8.53;3.27;;;13.40;99.90;;;;;;4979935;28;20184;-85
2022/06/14 06:20:17;;;;;;;5.23;2.40;;;13.70;99.90;;;;;;4983989;28;20222;-84
2022/06/14 06:22:49;;;;;;;4.70;2.77;;;13.80;99.90;;;;;;4973767;28;20197;-85
2022/06/14 06:25:21;;;;;;;5.03;2.40;;;13.40;99.90;;;;;;4972999;28;20189;-85
2022/06/14 06:27:53;;;;;;;4.90;2.60;;;13.60;99.90;;;;;;4974432;28;20241;-85
2022/06/14 06:30:29;;;;;;;5.97;2.50;;;13.90;99.90;;;;;;4973787;28;20695;-85
2022/06/14 06:32:56;;;;;;;9.73;3.43;;;14.00;99.90;;;;;;4974013;28;20288;-85
2022/06/14 06:35:30;;;;;;;6.90;2.90;;;14.10;99.90;;;;;;4973003;28;20289;-84
2022/06/14 06:38:01;;;;;;;6.03;2.40;;;14.00;99.90;;;;;;4972671;28;20617;-85
2022/06/14 06:40:28;;;;;;;7.03;2.67;;;14.20;99.90;;;;;;4974049;28;20238;-85
2022/06/14 06:42:59;;;;;;;4.80;2.40;;;14.50;99.90;;;;;;4973161;28;20722;-85
2022/06/14 06:45:30;;;;;;;5.73;2.67;;;14.70;99.90;;;;;;4974537;28;20753;-86
2022/06/14 06:48:01;;;;;;;5.00;2.40;;;14.70;99.90;;;;;;4973892;28;20202;-84
2022/06/14 06:50:34;;;;;;;8.57;2.43;;;14.70;99.90;;;;;;4973555;28;20600;-85
2022/06/14 06:53:08;;;;;;;4.50;2.40;;;14.70;99.90;;;;;;4974494;28;20293;-86
2022/06/14 06:55:41;;;;;;;5.43;2.90;;;14.80;99.90;;;;;;4973010;28;20285;-85
2022/06/14 06:58:14;;;;;;;5.00;2.30;;;15.00;99.90;;;;;;4973623;28;20665;-85
2022/06/14 07:00:46;;;;;;;4.50;2.40;;;14.50;99.90;;;;;;4971778;28;20244;-85
2022/06/14 07:03:20;;;;;;;6.57;2.40;;;14.60;99.90;;;;;;4974278;28;20182;-84
2022/06/14 07:05:51;;;;;;;3.67;2.20;;;14.90;99.90;;;;;;4963226;28;20224;-85
2022/06/14 07:08:23;;;;;;;4.57;2.40;;;14.80;99.90;;;;;;4955711;29;20193;-85
2022/06/14 07:10:53;;;;;;;13.27;3.33;;;14.90;99.90;;;;;;4954215;29;20233;-85
2022/06/14 07:13:27;;;;;;;6.90;2.30;;;15.00;99.90;;;;;;4955917;28;20286;-86
2022/06/14 07:16:03;;;;;;;6.43;2.60;;;15.20;99.90;;;;;;4953939;29;20216;-85
2022/06/14 07:18:40;;;;;;;6.97;2.30;;;15.30;99.90;;;;;;4955417;29;20186;-85
2022/06/14 07:21:11;;;;;;;4.63;2.53;;;15.00;99.90;;;;;;4967877;28;20325;-85
2022/06/14 07:23:43;;;;;;;6.43;2.07;;;15.20;99.90;;;;;;4972798;28;20234;-85
2022/06/14 07:26:16;;;;;;;4.17;2.13;;;15.00;99.90;;;;;;4975039;28;20289;-85
2022/06/14 07:28:52;;;;;;;2.30;1.60;;;15.10;99.90;;;;;;4975451;28;20208;-85
2022/06/14 07:31:27;;;;;;;4.17;1.70;;;15.30;99.90;;;;;;4979566;28;20244;-85
2022/06/14 07:33:55;;;;;;;6.80;2.00;;;15.40;99.90;;;;;;4980078;28;20221;-85
2022/06/14 07:36:29;;;;;;;5.07;1.53;;;15.40;99.90;;;;;;4979631;28;20292;-85
2022/06/14 07:39:02;;;;;;;6.13;1.97;;;15.40;99.90;;;;;;4980548;28;20565;-85
2022/06/14 07:41:38;;;;;;;7.83;2.10;;;15.60;99.90;;;;;;4978253;28;20237;-85
2022/06/14 07:44:12;;;;;;;8.40;1.70;;;15.60;99.90;;;;;;4979442;28;20236;-85
2022/06/14 07:46:48;;;;;;;4.67;1.33;;;15.60;93.70;;;;;;4980493;28;20300;-84
2022/06/14 07:49:22;;;;;;;6.07;1.80;;;15.70;93.90;;;;;;4980188;28;20208;-86
2022/06/14 07:51:54;;;;;;;4.43;1.63;;;15.70;94.40;;;;;;4981107;28;20193;-85
2022/06/14 07:54:27;;;;;;;5.68;2.30;;;15.80;98.40;;;;;;4980854;28;20201;-85
2022/06/14 07:56:57;;;;;;;7.40;1.90;;;15.90;97.00;;;;;;4980426;28;20248;-86
2022/06/14 07:59:28;;;;;;;8.20;2.13;;;15.80;99.60;;;;;;4998943;28;20196;-84
2022/06/14 08:02:01;;;;;;;5.23;1.83;;;15.70;99.00;;;;;;5000024;28;20189;-85
2022/06/14 08:04:34;;;;;;;8.70;2.57;;;15.80;99.90;;;;;;4995430;28;20231;-85
2022/06/14 08:07:04;;;;;;;6.40;1.97;;;15.80;99.60;;;;;;4994193;28;20572;-85
2022/06/14 08:09:41;;;;;;;6.75;2.22;;;16.00;99.00;;;;;;4998481;28;20237;-84
2022/06/14 08:12:13;;;;;;;7.45;1.80;;;15.60;98.00;;;;;;4997456;28;20205;-85
2022/06/14 08:14:46;;;;;;;10.27;2.30;;;15.90;99.70;;;;;;4998028;28;20190;-85
2022/06/14 08:17:19;;;;;;;5.20;1.57;;;16.00;95.60;;;;;;4998752;28;20185;-85
2022/06/14 08:19:49;;;;;;;5.77;2.03;;;16.30;96.30;;;;;;4999459;28;20231;-86
2022/06/14 08:22:22;;;;;;;3.93;1.50;;;16.40;93.90;;;;;;4997524;28;20288;-85
2022/06/14 08:24:56;;;;;;;4.72;1.40;;;16.60;94.40;;;;;;4998131;28;20649;-85
2022/06/14 08:27:29;;;;;;;3.33;1.48;;;16.20;92.20;;;;;;4998764;28;20203;-85
2022/06/14 08:30:01;;;;;;;6.40;2.00;;;16.30;92.30;;;;;;4998374;28;20308;-85
2022/06/14 08:32:34;;;;;;;5.57;1.77;;;16.70;89.70;;;;;;4998730;28;20287;-86
2022/06/14 08:35:06;;;;;;;7.22;1.90;;;16.90;88.00;;;;;;4998887;28;20221;-85
2022/06/14 08:37:37;;;;;;;5.13;1.50;;;16.90;91.30;;;;;;4998259;28;20236;-85
2022/06/14 08:40:19;;;;;;;5.07;1.70;;;16.90;90.10;;;;;;4996400;28;20776;-86
2022/06/14 08:42:50;;;;;;;5.75;1.55;;;17.10;87.10;;;;;;4974616;28;20231;-85
2022/06/14 08:45:25;;;;;;;8.40;1.95;;;17.50;81.70;;;;;;4976352;28;20709;-85
2022/06/14 08:48:06;;;;;;;7.25;1.88;;;17.50;78.10;;;;;;4976268;28;20304;-84
2022/06/14 08:51:01;;;;;;;3.88;1.60;;;17.10;78.90;;;;;;4970765;28;20317;-85
2022/06/14 08:54:07;;;;;;;4.32;1.90;;;17.00;73.00;;;;;;4955657;29;20269;-85
2022/06/14 08:56:49;;;;;;;6.78;1.92;;;16.90;83.50;;;;;;4956187;29;20190;-85
2022/06/14 08:59:38;;;;;;;7.88;1.83;;;17.10;87.80;;;;;;4975279;28;20195;-85
2022/06/14 09:02:47;;;;;;;9.10;2.00;;;16.90;83.00;;;;;;4976535;28;20193;-86
2022/06/14 09:05:39;;;;;;;3.28;1.52;;;17.00;87.10;;;;;;4954695;28;20222;-85
2022/06/14 09:08:42;;;;;;;7.03;1.73;;;17.70;79.10;;;;;;4976108;28;20202;-85
2022/06/14 09:11:40;;;;;;;4.07;1.90;;;18.10;73.00;;;;;;4975466;28;20311;-85
2022/06/14 09:14:33;;;;;;;3.67;1.77;;;18.60;76.00;;;;;;4973250;28;20281;-85
2022/06/14 09:17:24;;;;;;;5.60;1.85;;;19.20;71.90;;;;;;4975549;28;20560;-85
2022/06/14 09:20:02;;;;;;;4.45;2.00;;;19.00;60.20;;;;;;4974135;28;20333;-85
2022/06/14 09:22:39;;;;;;;5.63;2.15;;;19.40;59.60;;;;;;4975009;28;20264;-85
2022/06/14 09:25:16;;;;;;;6.40;2.03;;;19.00;63.30;;;;;;4975435;28;20300;-85
2022/06/14 09:28:12;;;;;;;4.45;1.65;;;18.70;59.70;;;;;;4975157;28;20189;-86
2022/06/14 09:31:08;;;;;;;4.75;2.10;;;18.70;63.60;;;;;;4975171;28;20220;-85
2022/06/14 09:34:09;;;;;;;4.72;1.85;;;18.40;64.70;;;;;;4975026;28;20602;-85
2022/06/14 09:37:00;;;;;;;5.50;2.08;;;18.50;64.60;;;;;;4975975;28;20288;-85
2022/06/14 09:40:00;;;;;;;6.03;1.85;;;18.10;67.20;;;;;;4963513;28;20330;-84
2022/06/14 09:43:08;;;;;;;5.18;2.13;;;17.90;60.00;;;;;;4941472;28;20202;-85
2022/06/14 09:46:15;;;;;;;9.18;2.05;;;17.80;65.80;;;;;;4972618;28;20224;-84
2022/06/14 09:49:18;;;;;;;3.78;1.98;;;18.30;62.50;;;;;;4973007;28;20570;-85
2022/06/14 09:52:16;;;;;;;4.60;1.92;;;18.40;56.80;;;;;;4994765;28;20197;-84
2022/06/14 09:55:13;;;;;;;3.70;1.92;;;18.30;55.80;;;;;;4994567;28;20200;-85
2022/06/14 09:58:04;;;;;;;5.50;2.40;;;18.70;57.50;;;;;;4993990;28;20217;-86
2022/06/14 10:00:44;;;;;;;4.32;1.80;;;18.60;62.50;;;;;;4995164;28;20240;-85
2022/06/14 10:03:44;;;;;;;7.63;2.00;;;18.90;57.70;;;;;;4994781;28;20215;-84
2022/06/14 10:06:34;;;;;;;5.38;1.92;;;19.40;58.20;;;;;;4987930;28;20210;-85
2022/06/14 10:09:14;;;;;;;3.92;2.00;;;19.60;53.90;;;;;;4975755;28;20194;-85
2022/06/14 10:11:55;;;;;;;7.53;1.92;;;19.30;55.10;;;;;;4975612;28;20196;-85
2022/06/14 10:14:38;;;;;;;4.35;2.10;;;18.80;53.70;;;;;;4973945;28;20207;-85
2022/06/14 10:17:30;;;;;;;6.38;1.90;;;18.80;59.60;;;;;;4973189;28;20216;-86
2022/06/14 10:20:14;;;;;;;5.15;1.95;;;18.80;57.00;;;;;;4974775;28;20228;-86
2022/06/14 10:22:55;;;;;;;5.30;1.67;;;19.00;54.40;;;;;;4974542;28;20189;-84
2022/06/14 10:25:30;;;;;;;4.13;1.85;;;19.00;53.70;;;;;;4974662;28;20598;-84
2022/06/14 10:28:13;;;;;;;3.00;1.63;;;19.50;51.40;;;;;;4973562;28;20280;-84
2022/06/14 10:30:58;;;;;;;4.10;1.80;;;20.30;47.40;;;;;;4975011;28;20213;-85
2022/06/14 10:33:47;;;;;;;3.33;1.83;;;20.40;46.50;;;;;;4974413;28;20197;-85
2022/06/14 10:36:33;;;;;;;3.08;1.60;;;20.50;45.80;;;;;;4973920;28;20201;-85
2022/06/14 10:39:39;;;;;;;6.07;2.03;;;21.00;42.00;;;;;;4976193;28;20200;-85
2022/06/14 10:42:16;;;;;;;2.80;1.42;;;21.20;35.40;;;;;;4975256;28;20245;-85
2022/06/14 10:44:51;;;;;;;4.25;2.03;;;21.50;37.10;;;;;;4975467;28;20233;-85
2022/06/14 10:47:34;;;;;;;4.15;2.13;;;21.60;36.90;;;;;;4975013;28;20263;-85
2022/06/14 10:50:17;;;;;;;5.82;1.80;;;21.80;34.10;;;;;;4976256;28;20309;-85
2022/06/14 10:52:53;;;;;;;5.32;1.63;;;21.60;34.00;;;;;;4974123;28;20196;-85
2022/06/14 10:55:48;;;;;;;3.63;1.90;;;21.70;31.20;;;;;;4973107;28;20201;-85
2022/06/14 10:58:35;;;;;;;3.03;1.55;;;21.20;36.90;;;;;;4974107;28;20694;-85
2022/06/14 11:01:17;;;;;;;4.90;1.92;;;20.40;39.80;;;;;;4974576;28;20241;-85
2022/06/14 11:03:59;;;;;;;7.70;1.90;;;20.40;42.20;;;;;;4975079;28;20250;-85
2022/06/14 11:06:42;;;;;;;5.80;2.00;;;20.50;42.90;;;;;;4974489;28;20229;-85
2022/06/14 11:09:21;;;;;;;7.28;2.22;;;20.30;44.80;;;;;;4976149;28;20188;-85
2022/06/14 11:12:02;;;;;;;6.88;1.85;;;21.20;37.80;;;;;;4975099;28;20213;-85
2022/06/14 11:14:38;;;;;;;5.90;1.83;;;21.50;37.20;;;;;;4975557;28;20309;-85
2022/06/14 11:17:29;;;;;;;4.80;1.73;;;21.50;38.30;;;;;;4975042;28;20276;-85
2022/06/14 11:20:12;;;;;;;7.45;2.17;;;21.80;33.50;;;;;;4958917;28;20758;-86
2022/06/14 11:22:42;;;;;;;4.88;1.73;;;21.30;36.10;;;;;;4963902;28;20220;-85
2022/06/14 11:25:24;;;;;;;3.72;1.95;;;21.20;33.50;;;;;;4972727;28;20620;-85
2022/06/14 11:28:06;;;;;;;6.63;2.28;;;21.20;35.10;;;;;;4971746;28;20261;-84
2022/06/14 11:30:43;;;;;;;7.13;2.42;;;21.70;36.80;;;;;;4965799;28;20218;-85
2022/06/14 11:33:19;;;;;;;5.53;2.13;;;21.30;33.60;;;;;;4971820;28;20577;-84
2022/06/14 11:36:03;;;;;;;4.72;1.83;;;21.00;36.20;;;;;;4963166;28;20205;-87
2022/06/14 11:38:50;;;;;;;6.50;1.80;;;21.10;35.20;;;;;;4958967;28;20206;-86
2022/06/14 11:41:20;;;;;;;4.43;1.55;;;20.40;37.00;;;;;;4958118;28;20225;-85
2022/06/14 11:44:01;;;;;;;3.60;2.00;;;21.10;38.80;;;;;;4966137;28;20202;-86
2022/06/14 11:46:38;;;;;;;2.70;1.35;;;21.30;35.50;;;;;;4959660;28;20601;-84
2022/06/14 11:49:11;;;;;;;6.07;2.15;;;22.00;36.30;;;;;;4962837;28;20209;-84
2022/06/14 11:51:46;;;;;;;5.95;2.20;;;22.00;35.30;;;;;;4966295;28;20214;-85
2022/06/14 11:54:22;;;;;;;3.90;1.77;;;21.40;33.40;;;;;;4961348;28;20208;-85
2022/06/14 11:57:02;;;;;;;4.75;1.95;;;21.60;37.50;;;;;;4964691;28;20228;-84
2022/06/14 12:00:05;;;;;;;4.82;1.88;;;21.00;38.90;;;;;;4962156;28;20285;-85
2022/06/14 12:02:43;;;;;;;4.88;2.40;;;21.50;34.40;;;;;;4964340;28;20292;-84
2022/06/14 12:05:23;;;;;;;5.07;1.98;;;21.40;34.10;;;;;;4969776;28;20232;-85
2022/06/14 12:08:01;;;;;;;3.00;1.63;;;21.10;35.00;;;;;;4961879;28;20321;-85
2022/06/14 12:10:47;;;;;;;2.97;1.55;;;20.80;35.80;;;;;;4962428;28;20232;-86
2022/06/14 12:13:34;;;;;;;5.28;1.92;;;21.40;35.10;;;;;;4971344;28;20269;-85
2022/06/14 12:16:08;;;;;;;5.05;2.30;;;20.90;34.60;;;;;;4963477;28;20216;-85
2022/06/14 12:18:38;;;;;;;4.32;2.40;;;20.60;35.70;;;;;;4967261;28;20214;-84
2022/06/14 12:21:11;;;;;;;3.10;1.88;;;21.70;36.80;;;;;;4963323;28;20252;-85
2022/06/14 12:23:45;;;;;;;3.53;1.92;;;22.00;32.60;;;;;;4970116;28;20516;-86
2022/06/14 12:29:07;;;;;;;5.68;2.38;;;21.70;31.30;;;;;;4969513;28;20587;-85
2022/06/14 12:31:42;;;;;;;4.60;2.10;;;21.40;28.50;;;;;;4974969;28;20661;-85
2022/06/14 12:34:17;;;;;;;4.05;2.10;;;21.50;34.00;;;;;;4993232;28;20212;-84
2022/06/14 12:36:50;;;;;;;2.83;2.33;;;21.30;31.30;;;;;;4989520;28;20276;-85
2022/06/14 12:39:30;;;;;;;3.95;2.10;;;21.80;29.30;;;;;;4974294;28;20194;-84
2022/06/14 12:42:04;;;;;;;4.57;2.17;;;21.30;28.60;;;;;;4982491;28;20273;-84
2022/06/14 12:44:51;;;;;;;8.60;2.70;;;21.30;33.20;;;;;;4978154;28;20212;-85
2022/06/14 12:47:25;;;;;;;4.05;2.00;;;22.00;32.90;;;;;;4958362;29;20261;-85
2022/06/14 12:49:55;;;;;;;3.20;2.15;;;21.10;34.20;;;;;;4955899;28;20309;-85
2022/06/14 12:52:29;;;;;;;3.28;1.98;;;20.60;33.70;;;;;;4957951;29;20210;-84
2022/06/14 12:55:02;;;;;;;6.80;2.60;;;20.90;33.50;;;;;;4956859;29;20210;-86
2022/06/14 12:57:43;;;;;;;6.15;2.50;;;20.90;31.90;;;;;;4958115;28;20718;-84
2022/06/14 13:00:19;;;;;;;4.10;2.17;;;22.10;32.60;;;;;;4957205;29;20260;-84
2022/06/14 13:02:54;;;;;;;5.25;2.00;;;21.90;33.30;;;;;;4957196;28;20337;-85
2022/06/14 13:05:26;;;;;;;2.83;2.33;;;22.00;29.80;;;;;;4964112;28;20217;-85
2022/06/14 13:08:05;;;;;;;4.90;2.58;;;21.80;29.50;;;;;;4975154;28;20285;-84
2022/06/14 13:10:50;;;;;;;5.70;2.17;;;21.90;30.00;;;;;;4974972;28;20365;-85
2022/06/14 13:13:44;;;;;;;3.33;2.08;;;22.30;29.30;;;;;;4976015;28;20249;-84
2022/06/14 13:16:18;;;;;;;5.20;2.47;;;21.90;28.50;;;;;;4969979;28;20205;-85
2022/06/14 13:18:58;;;;;;;3.88;2.20;;;22.30;30.00;;;;;;4974243;28;20227;-85
2022/06/14 13:21:32;;;;;;;6.85;2.20;;;21.90;30.80;;;;;;4973952;28;20320;-84
2022/06/14 13:24:12;;;;;;;4.88;2.00;;;22.60;29.10;;;;;;4976492;28;20752;-85
2022/06/14 13:27:00;;;;;;;5.82;2.60;;;22.70;27.40;;;;;;4975566;28;20593;-83
2022/06/14 13:29:41;;;;;;;4.47;2.28;;;22.50;29.30;;;;;;4976268;28;20705;-84
2022/06/14 13:32:25;;;;;;;5.38;2.42;;;22.80;29.80;;;;;;4977534;28;20216;-84
2022/06/14 13:35:02;;;;;;;2.70;1.95;;;22.30;25.70;;;;;;4975803;28;20220;-83
2022/06/14 13:37:44;;;;;;;2.35;2.15;;;21.90;30.00;;;;;;4975339;28;20197;-84
2022/06/14 13:40:16;;;;;;;6.47;2.60;;;21.90;31.10;;;;;;4975232;28;20221;-85
2022/06/14 13:42:52;;;;;;;4.05;2.70;;;21.10;32.80;;;;;;4975210;28;20296;-84
2022/06/14 13:45:26;;;;;;;5.00;2.75;;;19.90;35.70;;;;;;4975502;28;20341;-84